Time;durP1;ratioP1;P1;durP2;ratioP2;P2;SDS_P1;SDS_P2;PMS_P1;PMS_P2;Temp;Humidity;BMP_temperature;BMP_pressure;BME280_temperature;BME280_humidity;BME280_pressure;Samples;Min_cycle;Max_cycle;Signal;HPM_P1;HPM_P2
2023/07/28 00:02:19;;;;;;;4.82;2.40;;;19.00;94.20;;;;;;5136167;27;20023;-83
2023/07/28 00:04:45;;;;;;;4.25;2.38;;;18.90;94.30;;;;;;5134687;27;20023;-83
2023/07/28 00:07:10;;;;;;;5.00;2.30;;;18.80;94.70;;;;;;5136008;27;20019;-83
2023/07/28 00:09:36;;;;;;;4.20;2.10;;;18.70;94.80;;;;;;5116147;27;20050;-83
2023/07/28 00:12:04;;;;;;;6.47;2.85;;;18.70;94.80;;;;;;5133359;27;20076;-82
2023/07/28 00:14:30;;;;;;;4.47;2.15;;;18.80;94.80;;;;;;5133140;27;20027;-83
2023/07/28 00:16:57;;;;;;;4.47;2.25;;;18.80;94.50;;;;;;5135243;27;20073;-83
2023/07/28 00:19:23;;;;;;;5.82;2.17;;;18.80;94.60;;;;;;5135862;27;20055;-83
2023/07/28 00:21:50;;;;;;;6.18;1.95;;;18.70;95.00;;;;;;5133147;27;20066;-83
2023/07/28 00:24:16;;;;;;;5.47;2.15;;;18.70;95.10;;;;;;5130384;27;20027;-83
2023/07/28 00:26:42;;;;;;;3.78;2.00;;;18.80;94.60;;;;;;5130558;27;20030;-83
2023/07/28 00:29:07;;;;;;;6.32;1.80;;;18.80;94.60;;;;;;5133996;27;20390;-83
2023/07/28 00:31:33;;;;;;;5.68;2.17;;;18.80;94.70;;;;;;5126485;27;20039;-83
2023/07/28 00:33:59;;;;;;;3.97;2.08;;;18.80;94.60;;;;;;5130488;28;20075;-83
2023/07/28 00:36:25;;;;;;;4.63;1.90;;;18.90;94.50;;;;;;5132113;27;20027;-83
2023/07/28 00:38:50;;;;;;;6.10;2.25;;;19.00;94.30;;;;;;5134389;28;20028;-83
2023/07/28 00:41:16;;;;;;;4.35;2.22;;;18.90;94.30;;;;;;5133328;28;20027;-83
2023/07/28 00:43:42;;;;;;;6.13;2.20;;;18.80;94.90;;;;;;5128952;28;20119;-83
2023/07/28 00:46:09;;;;;;;5.07;2.20;;;18.50;95.70;;;;;;5135402;28;20102;-84
2023/07/28 00:48:35;;;;;;;5.07;2.17;;;18.40;95.70;;;;;;5111886;28;20066;-83
2023/07/28 00:51:01;;;;;;;4.40;2.40;;;18.30;96.20;;;;;;5110263;28;20113;-82
2023/07/28 00:53:28;;;;;;;4.65;2.50;;;18.10;96.60;;;;;;5114378;28;20032;-81
2023/07/28 00:55:55;;;;;;;5.10;2.08;;;18.00;96.70;;;;;;5096294;28;20324;-82
2023/07/28 00:58:21;;;;;;;5.38;2.60;;;18.00;96.80;;;;;;5114412;28;20031;-82
2023/07/28 01:00:47;;;;;;;4.53;2.60;;;17.80;97.20;;;;;;5112741;28;20051;-82
2023/07/28 01:03:14;;;;;;;4.70;2.30;;;17.50;97.40;;;;;;5115361;28;20027;-83
2023/07/28 01:05:51;;;;;;;6.25;2.30;;;17.20;97.60;;;;;;5096329;28;20024;-83
2023/07/28 01:08:24;;;;;;;5.05;2.50;;;17.00;97.40;;;;;;5083209;28;20110;-83
2023/07/28 01:10:50;;;;;;;7.30;3.17;;;16.70;97.10;;;;;;5109100;28;20112;-83
2023/07/28 01:13:15;;;;;;;3.80;2.22;;;16.50;96.70;;;;;;5093902;28;20360;-83
2023/07/28 01:15:41;;;;;;;4.07;2.38;;;16.40;96.40;;;;;;5118144;28;20424;-83
2023/07/28 01:18:07;;;;;;;5.10;2.30;;;16.10;95.40;;;;;;5120370;28;20140;-83
2023/07/28 01:20:34;;;;;;;5.40;2.60;;;16.00;95.40;;;;;;5111876;28;20637;-83
2023/07/28 01:23:21;;;;;;;5.50;2.85;;;15.90;95.20;;;;;;5113820;28;20035;-83
2023/07/28 01:26:10;;;;;;;5.60;2.63;;;15.80;94.10;;;;;;5114295;28;20109;-83
2023/07/28 01:28:37;;;;;;;9.75;2.65;;;15.60;94.30;;;;;;5109515;28;20024;-83
2023/07/28 01:31:04;;;;;;;5.13;3.00;;;15.50;93.60;;;;;;5090877;28;20042;-83
2023/07/28 01:33:30;;;;;;;5.50;2.60;;;15.40;93.20;;;;;;5095730;28;20416;-83
2023/07/28 01:35:56;;;;;;;4.38;2.50;;;15.30;92.30;;;;;;5113097;28;20058;-84
2023/07/28 01:38:22;;;;;;;5.78;2.90;;;15.30;91.60;;;;;;5115177;28;20051;-83
2023/07/28 01:40:47;;;;;;;4.22;2.70;;;15.20;91.20;;;;;;5115957;28;20373;-83
2023/07/28 01:43:13;;;;;;;5.68;2.83;;;15.10;91.00;;;;;;5117998;28;20366;-84
2023/07/28 01:45:38;;;;;;;5.15;2.45;;;15.10;90.30;;;;;;5117744;28;20020;-83
2023/07/28 01:48:05;;;;;;;6.03;2.80;;;15.00;89.20;;;;;;5113328;27;20044;-84
2023/07/28 01:50:31;;;;;;;5.90;2.90;;;14.90;88.70;;;;;;5136363;27;20375;-83
2023/07/28 01:52:56;;;;;;;5.20;2.97;;;14.90;87.20;;;;;;5138101;27;20051;-84
2023/07/28 01:55:22;;;;;;;6.43;3.00;;;14.80;87.00;;;;;;5137993;27;20027;-83
2023/07/28 01:57:55;;;;;;;5.70;3.25;;;14.80;87.10;;;;;;5138709;27;20056;-83
2023/07/28 02:00:20;;;;;;;6.10;3.50;;;14.70;87.70;;;;;;5138220;27;20032;-83
2023/07/28 02:02:47;;;;;;;5.55;3.15;;;14.60;86.80;;;;;;5138638;27;20337;-85
2023/07/28 02:05:13;;;;;;;4.30;2.83;;;14.60;85.80;;;;;;5137665;27;20031;-84
2023/07/28 02:07:39;;;;;;;6.63;3.72;;;14.60;85.40;;;;;;5128902;27;20119;-84
2023/07/28 02:10:05;;;;;;;6.40;3.30;;;14.50;84.60;;;;;;5137040;27;20023;-85
2023/07/28 02:12:30;;;;;;;4.68;2.97;;;14.50;84.80;;;;;;5138766;27;20545;-83
2023/07/28 02:14:56;;;;;;;6.70;3.67;;;14.40;82.90;;;;;;5138812;27;20066;-84
2023/07/28 02:17:21;;;;;;;5.30;3.35;;;14.30;82.30;;;;;;5137289;27;20031;-84
2023/07/28 02:19:47;;;;;;;7.30;3.17;;;14.40;81.80;;;;;;5137230;27;20043;-84
2023/07/28 02:22:13;;;;;;;6.50;3.60;;;14.40;80.90;;;;;;5120590;27;20089;-84
2023/07/28 02:24:38;;;;;;;7.65;3.60;;;14.40;79.40;;;;;;5137367;27;20031;-84
2023/07/28 02:27:04;;;;;;;5.97;3.55;;;14.40;80.30;;;;;;5138661;27;20056;-85
2023/07/28 02:29:30;;;;;;;8.07;3.67;;;14.40;80.30;;;;;;5136491;27;20431;-83
2023/07/28 02:31:55;;;;;;;5.57;2.95;;;14.40;78.90;;;;;;5115147;27;20037;-83
2023/07/28 02:34:21;;;;;;;9.35;3.25;;;14.40;80.30;;;;;;5116094;27;20063;-84
2023/07/28 02:36:47;;;;;;;5.95;3.75;;;14.50;81.30;;;;;;5137445;27;20431;-84
2023/07/28 02:39:13;;;;;;;6.97;3.25;;;14.70;80.80;;;;;;5137928;27;20039;-84
2023/07/28 02:41:38;;;;;;;5.60;2.78;;;15.10;85.50;;;;;;5128942;27;20088;-85
2023/07/28 02:44:04;;;;;;;5.68;3.00;;;15.40;88.80;;;;;;5136618;27;20102;-84
2023/07/28 02:46:29;;;;;;;5.93;3.10;;;15.70;91.40;;;;;;5136721;27;20027;-84
2023/07/28 02:48:55;;;;;;;6.18;3.08;;;15.90;92.50;;;;;;5135097;27;20039;-84
2023/07/28 02:51:20;;;;;;;7.53;2.97;;;16.30;94.70;;;;;;5122195;27;20060;-84
2023/07/28 02:53:46;;;;;;;7.55;3.00;;;16.50;95.90;;;;;;5131638;27;20311;-84
2023/07/28 02:56:14;;;;;;;5.43;2.88;;;16.80;96.40;;;;;;5134121;27;20031;-85
2023/07/28 02:58:40;;;;;;;6.95;3.03;;;17.00;97.00;;;;;;5123678;27;20339;-84
2023/07/28 03:01:05;;;;;;;5.13;3.10;;;17.10;97.30;;;;;;5118845;27;20027;-84
2023/07/28 03:03:31;;;;;;;5.72;3.03;;;17.10;97.50;;;;;;5135540;27;20293;-84
2023/07/28 03:05:57;;;;;;;5.43;2.97;;;17.10;97.50;;;;;;5123912;27;20015;-86
2023/07/28 03:08:22;;;;;;;4.57;3.08;;;17.10;97.40;;;;;;5136423;27;20034;-85
2023/07/28 03:10:48;;;;;;;5.50;2.80;;;17.10;97.30;;;;;;5136490;27;20110;-86
2023/07/28 03:13:13;;;;;;;6.53;3.10;;;17.10;97.30;;;;;;5134237;27;20429;-86
2023/07/28 03:15:39;;;;;;;5.38;3.17;;;17.10;97.40;;;;;;5118477;27;20327;-85
2023/07/28 03:18:04;;;;;;;6.90;2.88;;;17.20;97.60;;;;;;5118235;27;20027;-85
2023/07/28 03:20:30;;;;;;;4.78;2.85;;;17.10;97.30;;;;;;5134736;27;20035;-86
2023/07/28 03:22:56;;;;;;;7.55;3.25;;;17.10;97.60;;;;;;5135955;27;20104;-86
2023/07/28 03:25:21;;;;;;;5.95;3.00;;;17.20;97.70;;;;;;5135826;27;20096;-86
2023/07/28 03:27:47;;;;;;;5.35;2.67;;;17.20;97.60;;;;;;5136641;27;20111;-86
2023/07/28 03:30:13;;;;;;;6.57;2.80;;;17.20;97.80;;;;;;5118877;27;20404;-87
2023/07/28 03:32:39;;;;;;;6.18;3.05;;;17.20;97.90;;;;;;5136742;27;20120;-85
2023/07/28 03:35:05;;;;;;;5.25;3.22;;;17.30;97.70;;;;;;5132591;27;20070;-86
2023/07/28 03:37:32;;;;;;;8.05;3.45;;;17.20;97.70;;;;;;5136226;27;20026;-85
2023/07/28 03:39:57;;;;;;;6.53;3.45;;;17.20;97.90;;;;;;5117061;27;20080;-86
2023/07/28 03:42:23;;;;;;;6.03;2.90;;;17.20;97.70;;;;;;5119225;27;20031;-86
2023/07/28 03:44:49;;;;;;;6.60;3.00;;;17.20;97.80;;;;;;5117458;27;20027;-86
2023/07/28 03:47:19;;;;;;;5.70;3.50;;;17.20;98.00;;;;;;5135299;27;21907;-84
2023/07/28 03:49:44;;;;;;;6.68;2.95;;;17.20;98.00;;;;;;5133630;27;20050;-84
2023/07/28 03:52:10;;;;;;;5.95;3.10;;;17.20;97.90;;;;;;5117699;27;20019;-84
2023/07/28 03:54:35;;;;;;;6.07;2.90;;;17.30;97.90;;;;;;5124511;27;20068;-84
2023/07/28 03:57:01;;;;;;;6.60;2.65;;;17.20;97.90;;;;;;5132479;27;21689;-86
2023/07/28 03:59:26;;;;;;;4.85;2.88;;;17.20;98.00;;;;;;5134737;27;20023;-86
2023/07/28 04:01:52;;;;;;;5.15;2.90;;;17.30;98.00;;;;;;5133939;27;20138;-86
2023/07/28 04:04:18;;;;;;;4.68;2.50;;;17.30;98.00;;;;;;5135067;27;20031;-86
2023/07/28 04:06:50;;;;;;;5.70;3.00;;;17.50;98.00;;;;;;5134618;27;20081;-85
2023/07/28 04:09:19;;;;;;;7.15;2.80;;;17.60;98.00;;;;;;5130907;27;20425;-85
2023/07/28 04:11:45;;;;;;;6.45;2.88;;;17.70;98.00;;;;;;5136506;27;20060;-87
2023/07/28 04:14:11;;;;;;;5.78;3.03;;;17.60;98.00;;;;;;5135566;27;20031;-86
2023/07/28 04:16:37;;;;;;;5.38;3.25;;;17.70;97.90;;;;;;5114786;27;20055;-85
2023/07/28 04:19:03;;;;;;;5.68;3.33;;;17.70;97.90;;;;;;5135150;27;20405;-86
2023/07/28 04:21:32;;;;;;;6.03;3.20;;;17.70;97.90;;;;;;5133233;27;20019;-86
2023/07/28 04:24:00;;;;;;;6.75;3.10;;;17.70;98.00;;;;;;5134346;27;20328;-86
2023/07/28 04:26:26;;;;;;;6.32;3.00;;;17.70;97.90;;;;;;5134832;27;20058;-87
2023/07/28 04:28:51;;;;;;;5.15;2.65;;;17.90;97.60;;;;;;5135171;27;20347;-85
2023/07/28 04:31:17;;;;;;;6.57;3.17;;;18.00;97.50;;;;;;5131236;28;20031;-86
2023/07/28 04:33:43;;;;;;;5.18;2.85;;;18.00;97.50;;;;;;5135037;28;20084;-86
2023/07/28 04:36:09;;;;;;;7.30;2.70;;;18.10;97.50;;;;;;5133799;28;20106;-86
2023/07/28 04:38:35;;;;;;;5.32;2.88;;;18.00;97.60;;;;;;5135005;28;20039;-87
2023/07/28 04:41:01;;;;;;;4.80;2.90;;;18.10;97.60;;;;;;5130929;28;20035;-86
2023/07/28 04:43:26;;;;;;;5.80;2.80;;;18.10;97.60;;;;;;5116200;28;20027;-85
2023/07/28 04:45:52;;;;;;;6.50;3.17;;;18.10;97.50;;;;;;5131645;28;20347;-86
2023/07/28 04:48:17;;;;;;;4.65;2.65;;;18.20;97.30;;;;;;5132586;28;20047;-86
2023/07/28 04:50:44;;;;;;;6.28;2.65;;;18.20;97.50;;;;;;5132289;27;20027;-86
2023/07/28 04:53:10;;;;;;;5.40;2.92;;;18.30;97.40;;;;;;5116124;28;20033;-85
2023/07/28 04:55:35;;;;;;;4.93;2.80;;;18.40;97.20;;;;;;5135125;28;20307;-87
2023/07/28 04:58:01;;;;;;;7.40;2.70;;;18.50;96.20;;;;;;5133900;28;20107;-86
2023/07/28 05:00:26;;;;;;;5.88;2.90;;;18.70;95.80;;;;;;5135130;28;20031;-86
2023/07/28 05:02:52;;;;;;;5.25;2.70;;;18.80;96.10;;;;;;5134553;28;20035;-86
2023/07/28 05:05:17;;;;;;;5.18;3.03;;;18.80;95.90;;;;;;5132343;28;20053;-86
2023/07/28 05:07:43;;;;;;;4.78;3.00;;;18.80;95.70;;;;;;5135163;28;20019;-86
2023/07/28 05:10:09;;;;;;;5.07;2.90;;;18.90;95.40;;;;;;5119135;28;20024;-86
2023/07/28 05:12:35;;;;;;;4.43;2.80;;;19.00;95.20;;;;;;5136534;27;20059;-86
2023/07/28 05:15:00;;;;;;;6.32;3.00;;;19.00;95.10;;;;;;5133756;27;20109;-85
2023/07/28 05:17:26;;;;;;;6.55;2.60;;;19.10;95.00;;;;;;5138844;27;20042;-86
2023/07/28 05:19:52;;;;;;;5.15;2.88;;;19.10;94.80;;;;;;5137358;27;20327;-87
2023/07/28 05:22:18;;;;;;;6.18;3.20;;;19.20;94.60;;;;;;5137098;27;20344;-86
2023/07/28 05:24:44;;;;;;;6.15;2.92;;;19.20;94.00;;;;;;5139264;27;20032;-87
2023/07/28 05:27:10;;;;;;;8.60;3.70;;;19.30;93.70;;;;;;5119663;27;20514;-86
2023/07/28 05:29:36;;;;;;;6.15;3.38;;;19.40;93.40;;;;;;5140232;27;20023;-86
2023/07/28 05:32:03;;;;;;;7.97;3.50;;;19.40;93.40;;;;;;5137249;27;20106;-86
2023/07/28 05:34:29;;;;;;;5.47;3.28;;;19.40;93.40;;;;;;5139496;27;20106;-86
2023/07/28 05:36:55;;;;;;;6.60;3.20;;;19.40;93.20;;;;;;5134489;27;20028;-85
2023/07/28 05:39:21;;;;;;;7.35;3.10;;;19.40;93.40;;;;;;5138411;27;20088;-86
2023/07/28 05:41:46;;;;;;;6.03;3.00;;;19.40;93.40;;;;;;5136305;27;20027;-87
2023/07/28 05:44:12;;;;;;;6.43;3.22;;;19.40;93.50;;;;;;5138677;27;20030;-86
2023/07/28 05:46:37;;;;;;;7.53;3.22;;;19.30;93.50;;;;;;5136037;27;20407;-86
2023/07/28 05:49:03;;;;;;;4.95;3.10;;;19.30;93.60;;;;;;5137418;27;20067;-86
2023/07/28 05:51:28;;;;;;;5.15;3.10;;;19.40;93.70;;;;;;5136720;27;20043;-86
2023/07/28 05:53:54;;;;;;;6.90;3.30;;;19.30;93.60;;;;;;5137983;27;20053;-86
2023/07/28 05:56:20;;;;;;;6.18;3.33;;;19.40;94.10;;;;;;5138261;27;20106;-85
2023/07/28 05:58:47;;;;;;;5.85;3.08;;;19.40;93.90;;;;;;5138159;27;20103;-85
2023/07/28 06:01:13;;;;;;;7.35;3.22;;;19.40;94.10;;;;;;5138211;27;20027;-87
2023/07/28 06:03:38;;;;;;;5.65;2.85;;;19.40;94.70;;;;;;5120967;27;20025;-86
2023/07/28 06:06:04;;;;;;;5.97;3.25;;;19.20;95.40;;;;;;5134253;27;20431;-87
2023/07/28 06:08:30;;;;;;;9.55;3.22;;;19.00;96.10;;;;;;5139207;27;20027;-89
2023/07/28 06:17:29;;;;;;;7.10;3.30;;;18.10;96.10;;;;;;5080170;27;20343;-89
2023/07/28 06:19:55;;;;;;;6.78;3.30;;;17.80;96.90;;;;;;5117208;27;20035;-87
2023/07/28 06:22:21;;;;;;;6.82;3.35;;;17.70;96.20;;;;;;5138057;27;20030;-86
2023/07/28 06:24:47;;;;;;;6.25;3.42;;;17.60;95.90;;;;;;5138363;27;20431;-88
2023/07/28 06:27:12;;;;;;;6.15;3.38;;;17.60;93.70;;;;;;5138587;27;20080;-88
2023/07/28 06:29:38;;;;;;;7.22;3.50;;;17.60;96.00;;;;;;5138733;27;20024;-87
2023/07/28 06:32:04;;;;;;;6.35;3.60;;;17.60;93.20;;;;;;5137761;27;20069;-88
2023/07/28 06:34:30;;;;;;;8.70;3.15;;;17.60;92.70;;;;;;5135813;27;20026;-88
2023/07/28 06:36:55;;;;;;;6.95;2.90;;;17.90;96.10;;;;;;5136369;27;20323;-88
2023/07/28 06:39:21;;;;;;;7.47;3.30;;;18.00;98.00;;;;;;5114262;27;20027;-89
2023/07/28 06:41:47;;;;;;;5.93;3.20;;;18.10;98.00;;;;;;5136257;27;20035;-87
2023/07/28 06:44:57;;;;;;;;;;;;;;;;;;;;;
2023/07/28 06:47:37;;;;;;;6.32;3.13;;;18.10;98.00;;;;;;5103431;27;20027;-88
2023/07/28 06:50:10;;;;;;;5.22;2.95;;;18.20;97.60;;;;;;5135201;27;20428;-88
2023/07/28 06:52:36;;;;;;;7.55;3.28;;;18.30;97.90;;;;;;5119209;27;20412;-89
2023/07/28 06:55:01;;;;;;;5.45;3.10;;;18.50;97.80;;;;;;5119800;27;20055;-89
2023/07/28 06:57:28;;;;;;;6.80;3.47;;;18.90;97.30;;;;;;5134939;27;20051;-89
2023/07/28 06:59:54;;;;;;;5.78;3.03;;;19.10;97.40;;;;;;5134630;27;20072;-89
2023/07/28 07:02:20;;;;;;;4.78;2.92;;;19.30;97.50;;;;;;5135192;27;20022;-90
2023/07/28 07:04:45;;;;;;;8.07;3.15;;;19.40;97.30;;;;;;5123271;27;20019;-89
2023/07/28 07:07:11;;;;;;;6.75;3.75;;;19.50;97.10;;;;;;5117206;27;20045;-88
2023/07/28 07:09:37;;;;;;;6.93;3.40;;;19.50;97.80;;;;;;5119914;27;20464;-89
2023/07/28 07:12:03;;;;;;;4.80;3.08;;;19.50;97.20;;;;;;5135958;27;20031;-89
2023/07/28 07:14:28;;;;;;;6.13;3.28;;;19.80;97.30;;;;;;5111835;27;20027;-89
2023/07/28 07:16:54;;;;;;;5.68;3.00;;;20.10;97.10;;;;;;5136913;27;20034;-88
2023/07/28 07:19:20;;;;;;;7.40;2.85;;;20.20;96.60;;;;;;5134796;27;20079;-89
2023/07/28 07:21:47;;;;;;;8.57;3.10;;;20.70;96.20;;;;;;5135686;27;20415;-90
2023/07/28 07:24:15;;;;;;;6.80;3.17;;;20.80;95.90;;;;;;5120011;27;20411;-88
2023/07/28 07:26:41;;;;;;;5.82;3.20;;;20.70;95.00;;;;;;5119920;27;20110;-89
2023/07/28 07:29:08;;;;;;;6.35;3.50;;;20.80;95.20;;;;;;5118522;27;20583;-89
2023/07/28 07:31:34;;;;;;;5.20;3.05;;;20.90;94.80;;;;;;5137113;27;20422;-88
2023/07/28 07:33:59;;;;;;;4.82;2.75;;;20.90;94.90;;;;;;5137741;27;20031;-87
2023/07/28 07:36:25;;;;;;;6.10;2.90;;;20.70;95.10;;;;;;5135624;27;20023;-88
2023/07/28 07:38:51;;;;;;;6.32;2.80;;;20.70;95.20;;;;;;5136633;27;20361;-87
2023/07/28 07:41:19;;;;;;;9.27;3.63;;;20.60;95.40;;;;;;5119364;27;20023;-89
2023/07/28 07:43:46;;;;;;;7.03;3.33;;;20.60;95.10;;;;;;5137485;27;20399;-88
2023/07/28 07:46:12;;;;;;;6.30;2.95;;;20.60;95.20;;;;;;5137182;27;20382;-88
2023/07/28 07:48:38;;;;;;;6.07;2.97;;;20.70;95.20;;;;;;5136062;27;20066;-87
2023/07/28 07:51:03;;;;;;;6.15;3.10;;;20.80;95.30;;;;;;5135445;27;20061;-88
2023/07/28 07:53:29;;;;;;;4.60;2.70;;;20.90;95.30;;;;;;5136803;27;20034;-87
2023/07/28 07:55:55;;;;;;;6.88;3.15;;;21.00;94.70;;;;;;5136949;27;20027;-87
2023/07/28 07:58:20;;;;;;;5.95;3.20;;;21.00;94.20;;;;;;5136421;27;20027;-87
2023/07/28 08:00:46;;;;;;;5.07;2.70;;;21.00;94.60;;;;;;5134204;27;20053;-87
2023/07/28 08:03:12;;;;;;;4.72;2.95;;;21.00;94.40;;;;;;5136453;27;20069;-87
2023/07/28 08:05:37;;;;;;;5.63;3.13;;;21.10;93.80;;;;;;5135333;27;20031;-88
2023/07/28 08:08:05;;;;;;;6.47;2.85;;;21.20;94.00;;;;;;5136634;27;20120;-87
2023/07/28 08:10:31;;;;;;;5.57;3.25;;;21.40;93.90;;;;;;5135119;27;20427;-87
2023/07/28 08:12:57;;;;;;;6.63;3.30;;;21.80;92.90;;;;;;5137100;27;20034;-87
2023/07/28 08:15:22;;;;;;;4.78;3.08;;;22.50;91.10;;;;;;5137378;27;20026;-87
2023/07/28 08:17:48;;;;;;;8.05;2.95;;;23.00;89.50;;;;;;5137172;27;20024;-86
2023/07/28 08:20:13;;;;;;;5.57;3.22;;;23.20;88.90;;;;;;5135159;27;20427;-87
2023/07/28 08:22:39;;;;;;;6.95;2.80;;;23.30;88.40;;;;;;5136478;27;20023;-86
2023/07/28 08:25:05;;;;;;;6.60;2.92;;;23.00;88.10;;;;;;5120192;27;20019;-86
2023/07/28 08:27:31;;;;;;;4.25;2.55;;;22.70;88.80;;;;;;5137212;27;20055;-85
2023/07/28 08:29:56;;;;;;;5.57;2.50;;;23.20;88.00;;;;;;5137071;27;20023;-87
2023/07/28 08:32:22;;;;;;;5.07;2.60;;;23.70;87.60;;;;;;5136985;27;20024;-86
2023/07/28 08:34:48;;;;;;;9.90;6.63;;;24.40;86.00;;;;;;5133097;27;20023;-86
2023/07/28 08:37:14;;;;;;;6.18;3.25;;;24.70;83.20;;;;;;5135874;27;20043;-87
2023/07/28 08:39:39;;;;;;;4.90;2.47;;;24.30;84.50;;;;;;5136065;27;20026;-86
2023/07/28 08:42:05;;;;;;;4.97;2.47;;;24.10;84.60;;;;;;5134748;27;20327;-86
2023/07/28 08:44:34;;;;;;;5.28;2.42;;;24.30;85.30;;;;;;5135853;27;20054;-86
2023/07/28 08:47:01;;;;;;;5.35;2.65;;;25.10;85.30;;;;;;5136819;28;20030;-86
2023/07/28 08:49:27;;;;;;;6.43;2.60;;;26.50;80.70;;;;;;5137618;27;20114;-86
2023/07/28 08:51:58;;;;;;;4.85;2.72;;;26.70;78.70;;;;;;5137540;27;20114;-86
2023/07/28 08:54:23;;;;;;;5.25;2.92;;;26.10;79.70;;;;;;5140175;27;20031;-86
2023/07/28 08:56:50;;;;;;;5.97;2.72;;;25.30;81.60;;;;;;5140167;27;20069;-87
2023/07/28 08:59:28;;;;;;;7.82;3.00;;;24.60;83.60;;;;;;5140912;27;20027;-86
2023/07/28 09:01:55;;;;;;;5.85;2.60;;;24.40;83.20;;;;;;5139737;27;20023;-86
2023/07/28 09:04:21;;;;;;;7.03;2.70;;;24.40;84.60;;;;;;5122461;27;20016;-85
2023/07/28 09:06:49;;;;;;;4.30;2.50;;;24.30;85.30;;;;;;5138820;27;20098;-85
2023/07/28 09:09:15;;;;;;;5.18;3.00;;;24.30;84.60;;;;;;5140298;27;20023;-85
2023/07/28 09:11:45;;;;;;;4.57;2.53;;;24.10;85.80;;;;;;5139218;27;20046;-86
2023/07/28 09:14:12;;;;;;;4.68;2.80;;;24.10;86.10;;;;;;5140670;27;20472;-84
2023/07/28 09:16:38;;;;;;;6.82;2.80;;;24.20;84.90;;;;;;5140682;27;20389;-85
2023/07/28 09:19:08;;;;;;;6.88;2.78;;;23.90;84.20;;;;;;5140595;27;20068;-86
2023/07/28 09:21:33;;;;;;;4.72;2.65;;;23.80;85.30;;;;;;5138471;27;20039;-85
2023/07/28 09:24:06;;;;;;;4.70;2.58;;;24.00;82.90;;;;;;5139728;27;20030;-84
2023/07/28 09:26:44;;;;;;;5.38;2.60;;;24.20;83.90;;;;;;5139699;27;20379;-85
2023/07/28 09:29:19;;;;;;;5.10;2.60;;;24.70;82.00;;;;;;5138535;27;20391;-84
2023/07/28 09:31:47;;;;;;;7.05;2.80;;;25.00;80.80;;;;;;5139693;27;20111;-84
2023/07/28 09:34:24;;;;;;;6.05;2.85;;;24.60;81.20;;;;;;5139033;27;20035;-85
2023/07/28 09:36:49;;;;;;;5.25;2.65;;;24.30;82.30;;;;;;5120726;27;20051;-83
2023/07/28 09:39:19;;;;;;;5.18;2.97;;;24.60;82.00;;;;;;5139718;27;20431;-82
2023/07/28 09:41:46;;;;;;;6.13;2.80;;;25.10;80.10;;;;;;5138420;27;20376;-84
2023/07/28 09:44:11;;;;;;;6.65;3.33;;;24.80;80.90;;;;;;5139486;27;20361;-83
2023/07/28 09:46:52;;;;;;;5.28;2.92;;;25.00;80.00;;;;;;5139314;27;20030;-85
2023/07/28 09:49:34;;;;;;;4.70;2.50;;;25.50;79.20;;;;;;5120745;27;20297;-85
2023/07/28 09:52:08;;;;;;;5.75;2.95;;;25.60;79.10;;;;;;5139216;27;20035;-85
2023/07/28 09:54:38;;;;;;;;;;;25.60;79.60;;;;;;5127184;27;20030;-85
2023/07/28 09:57:04;;;;;;;7.47;3.15;;;26.20;78.30;;;;;;5139406;27;20215;-85
2023/07/28 09:59:35;;;;;;;5.10;2.60;;;27.00;76.90;;;;;;5123677;27;20423;-84
2023/07/28 10:02:02;;;;;;;5.90;2.80;;;27.00;75.10;;;;;;5138691;27;20031;-85
2023/07/28 10:04:29;;;;;;;5.82;2.95;;;26.50;76.00;;;;;;5120634;27;20076;-84
2023/07/28 10:06:56;;;;;;;6.85;3.15;;;25.70;77.10;;;;;;5137855;27;20039;-84
2023/07/28 10:09:24;;;;;;;5.57;2.70;;;24.80;78.50;;;;;;5139293;27;20024;-84
2023/07/28 10:11:50;;;;;;;4.65;2.47;;;25.60;79.40;;;;;;5125572;27;20025;-84
2023/07/28 10:14:30;;;;;;;5.32;2.63;;;27.00;75.90;;;;;;5138505;27;20035;-85
2023/07/28 10:16:58;;;;;;;6.78;2.63;;;27.60;74.40;;;;;;5138325;27;20106;-83
2023/07/28 10:19:27;;;;;;;4.88;2.35;;;27.80;74.10;;;;;;5138435;27;20023;-84
2023/07/28 10:22:07;;;;;;;5.53;2.95;;;27.90;73.70;;;;;;5117058;28;20032;-84
2023/07/28 10:24:52;;;;;;;7.28;3.05;;;26.90;74.40;;;;;;5100581;28;20077;-84
2023/07/28 10:27:46;;;;;;;4.40;2.50;;;26.10;76.10;;;;;;5100727;28;20023;-84
2023/07/28 10:30:13;;;;;;;4.90;2.70;;;25.50;76.90;;;;;;5111201;27;20019;-85
2023/07/28 10:32:45;;;;;;;5.50;2.88;;;25.40;78.60;;;;;;5138000;27;20150;-84
2023/07/28 10:35:13;;;;;;;4.82;2.80;;;25.40;78.30;;;;;;5129225;27;20023;-85
2023/07/28 10:37:44;;;;;;;5.28;2.95;;;25.10;77.60;;;;;;5118384;28;20063;-86
2023/07/28 10:40:35;;;;;;;5.50;2.72;;;24.90;79.30;;;;;;5118469;28;20016;-85
2023/07/28 10:43:02;;;;;;;5.03;2.70;;;25.50;77.50;;;;;;5118412;28;20023;-84
2023/07/28 10:45:30;;;;;;;5.32;2.80;;;25.60;76.40;;;;;;5117326;28;20065;-85
2023/07/28 10:47:59;;;;;;;10.52;3.30;;;25.50;76.90;;;;;;5137255;27;20068;-85
2023/07/28 10:50:30;;;;;;;4.38;2.70;;;25.20;76.40;;;;;;5136757;27;20023;-85
2023/07/28 10:52:56;;;;;;;5.88;2.70;;;24.70;77.10;;;;;;5138651;27;20102;-85
2023/07/28 10:55:23;;;;;;;4.97;3.00;;;24.40;76.70;;;;;;5120628;27;20107;-85
2023/07/28 10:57:50;;;;;;;5.65;3.13;;;24.20;76.80;;;;;;5138518;27;20029;-86
2023/07/28 11:00:18;;;;;;;5.97;2.80;;;24.00;77.00;;;;;;5120368;27;20360;-86
2023/07/28 11:02:52;;;;;;;4.63;2.67;;;23.60;79.70;;;;;;5135857;27;20311;-87
2023/07/28 11:05:29;;;;;;;6.50;3.15;;;23.60;80.20;;;;;;5115683;28;20020;-86
2023/07/28 11:08:05;;;;;;;5.93;2.97;;;23.90;79.60;;;;;;5117863;28;20020;-84
2023/07/28 11:10:31;;;;;;;6.22;2.97;;;23.80;80.20;;;;;;5132572;27;20096;-85
2023/07/28 11:13:00;;;;;;;5.28;2.40;;;23.40;81.10;;;;;;5137307;27;20023;-86
2023/07/28 11:15:26;;;;;;;5.28;3.28;;;23.20;82.40;;;;;;5138229;27;20062;-85
2023/07/28 11:17:52;;;;;;;4.45;2.65;;;23.00;83.80;;;;;;5137609;27;20023;-86
2023/07/28 11:20:22;;;;;;;5.32;2.97;;;22.70;85.10;;;;;;5135641;27;20065;-84
2023/07/28 11:23:05;;;;;;;8.43;3.60;;;22.50;85.70;;;;;;5133222;27;20030;-85
2023/07/28 11:25:32;;;;;;;6.40;3.38;;;22.50;87.30;;;;;;5119231;27;20019;-86
2023/07/28 11:28:01;;;;;;;4.63;2.63;;;22.60;87.80;;;;;;5120392;27;20438;-86
2023/07/28 11:30:27;;;;;;;4.85;2.63;;;22.60;86.70;;;;;;5138086;27;20031;-85
2023/07/28 11:32:53;;;;;;;6.43;3.00;;;22.70;86.70;;;;;;5137984;27;20064;-86
2023/07/28 11:35:22;;;;;;;6.00;3.20;;;22.70;86.80;;;;;;5126710;27;20073;-86
2023/07/28 11:37:50;;;;;;;5.45;3.03;;;22.70;87.10;;;;;;5117462;28;20019;-86
2023/07/28 11:40:18;;;;;;;5.80;2.83;;;22.70;86.40;;;;;;5117143;28;20024;-87
2023/07/28 11:42:50;;;;;;;5.78;3.00;;;23.00;87.00;;;;;;5131918;27;20141;-85
2023/07/28 11:45:18;;;;;;;5.20;2.92;;;23.40;86.20;;;;;;5136843;27;20030;-86
2023/07/28 11:48:02;;;;;;;5.43;3.00;;;23.30;86.20;;;;;;5136442;27;20344;-85
2023/07/28 11:50:29;;;;;;;;;;;23.60;86.00;;;;;;5135858;27;20120;-86
2023/07/28 11:52:56;;;;;;;6.30;3.10;;;23.80;84.90;;;;;;5137573;27;19911;-86
2023/07/28 11:55:23;;;;;;;5.47;2.85;;;24.10;84.40;;;;;;5137529;27;20019;-86
2023/07/28 11:57:49;;;;;;;6.43;2.58;;;24.50;83.00;;;;;;5136625;27;20032;-85
2023/07/28 12:00:25;;;;;;;5.55;2.78;;;25.30;80.10;;;;;;5137234;27;20171;-85
2023/07/28 12:03:10;;;;;;;4.85;2.83;;;26.20;78.40;;;;;;5136640;27;20043;-85
2023/07/28 12:05:40;;;;;;;6.05;2.72;;;26.50;76.60;;;;;;5134526;27;20058;-85
2023/07/28 12:08:07;;;;;;;5.60;3.17;;;26.90;76.10;;;;;;5137264;27;20102;-85
2023/07/28 12:10:33;;;;;;;5.18;2.90;;;26.60;75.40;;;;;;5133725;27;20019;-85
2023/07/28 12:13:10;;;;;;;5.25;2.80;;;26.40;76.20;;;;;;5136112;27;20120;-85
2023/07/28 12:15:41;;;;;;;5.43;2.90;;;26.30;76.90;;;;;;5133681;27;20316;-85
2023/07/28 12:18:14;;;;;;;5.97;2.70;;;25.90;78.80;;;;;;5115585;28;20032;-86
2023/07/28 12:20:47;;;;;;;5.45;2.80;;;25.20;79.90;;;;;;5128661;27;20023;-86
2023/07/28 12:23:23;;;;;;;5.13;2.87;;;24.80;82.60;;;;;;5118816;27;20423;-86
2023/07/28 12:25:55;;;;;;;4.47;2.78;;;24.80;81.80;;;;;;5125297;27;20019;-84
2023/07/28 12:28:20;;;;;;;5.22;3.15;;;25.00;81.40;;;;;;5132710;27;20030;-86
2023/07/28 12:30:49;;;;;;;5.43;3.03;;;25.30;82.60;;;;;;5134875;27;20098;-84
2023/07/28 12:33:14;;;;;;;6.05;2.80;;;25.40;81.00;;;;;;5134098;27;20031;-84
2023/07/28 12:35:40;;;;;;;7.10;3.03;;;25.10;80.80;;;;;;5127426;27;20114;-84
2023/07/28 12:38:06;;;;;;;5.35;2.80;;;25.00;80.70;;;;;;5123923;27;20075;-84
2023/07/28 12:40:33;;;;;;;5.20;3.00;;;25.10;81.00;;;;;;5125615;28;20381;-84
2023/07/28 12:42:59;;;;;;;7.95;3.50;;;25.20;82.40;;;;;;5135906;28;20053;-77
2023/07/28 12:45:25;;;;;;;5.50;3.00;;;25.30;83.70;;;;;;5136687;28;20027;-83
2023/07/28 12:47:55;;;;;;;5.07;3.03;;;25.30;82.90;;;;;;5118469;28;20370;-84
2023/07/28 12:50:21;;;;;;;6.45;2.55;;;25.00;82.30;;;;;;5134419;28;20420;-83
2023/07/28 12:52:48;;;;;;;6.13;2.92;;;24.90;83.20;;;;;;5115672;28;20027;-84
2023/07/28 12:55:15;;;;;;;6.15;3.30;;;25.10;81.80;;;;;;5135656;27;20077;-84
2023/07/28 12:57:44;;;;;;;5.35;2.80;;;25.30;82.90;;;;;;5136972;28;20334;-83